Indianapolis, Indiana
Current Conditions -  °F | °C
As of 12:54 PM on Tuesday 21 Oct 2014 (Local Time) from KIND Reporting Station
Broken Clouds Broken Clouds  
Wind Chill: 53°   Ceiling: 3300
Heat Index: 53°   Visibility: 10mi
Dew Point: 42°   Wind: 12mph
Humidity: 66%   Direction: 360°N
Pressure: 30.09"   Gusts: 18mph
Location:  39.77°N, 86.15°W
Report Text: KIND 211654Z 36010G16KT 10SM SCT027 BKN033 BKN050 12/06 A3009 RMK AO2 SLP190 T01170056
Loading
Personal Weather Stations






























Interactive Weather Map
Tropical Storm Tracking
New forecast layout! Learn more

10-Day Weather Forecast

Advertisements
Track Severe Weather on mobile